Главная страница
METAR-TAF:

METAR-TAF

Аэропорты :

Ларнака, Кипр

широта: 34-53N, долгота: 033-38E, высота над уровнем моря: 2 м

Текущие метеонаблюдения

Эта сводка был подготовлена 33 минут назад, в 12:30 UTC
Ветер 7 Узел от южный
Температура 21°C
Влажность 43%
Давление 1012 hPa
Видимость 10 км и более
небольшая облачность на высоте 2200 фута

METAR: LCLK 081230Z 18007KT 9999 FEW022 21/08 Q1012 NOSIG

Время: 15:03 (13:03 UTC)

Прогноз

Эта сводка был подготовлена 1 час и 33 минут назад, в 11:30 UTC
Прогноз действительный с 08-го 12 UTC до 09-го 12 UTC
Ветер 12 Узел от южный-юго-западный
Видимость 10 км и более
небольшая облачность на высоте 2500 фута
изменения
С 08-го 15 UTC до 08-го 19 UTC
Ветер 7 Узел от северно-северо-западный
изменения
С 09-го 08 UTC до 09-го 10 UTC
Ветер 12 Узел от северо-северо-восточный

TAF: LCLK 081130Z 0812/0912 21012KT 9999 FEW025 BECMG 0815/0819 33007KT BECMG 0908/0910 03012KT

Метеонаблюдения и прогнозы для более 4000 аэропортов (сводки METAR и TAF).

Имеющиеся станции представлены на карте желтыми и красными точками.

Чтобы увидеть название станции, наведите на нее мышь.

Затем щелкните, чтобы увидеть метеонаблюдения и метеопрогнозы.

Управление картой: чтобы увеличить масштаб, щелкните зеленые кнопки с черным крестиком; чтобы уменьшить масштаб, щелкните зеленую кнопку с тире; для просмотра соседних карт щелкайте зеленые стрелки.


METAR-TAF: